Rainford, United Kingdom
Current Conditions -  °F | °C
As of 5:50 AM on Thursday 27 Nov 2014 (Local Time) from EGGP Reporting Station
Broken Clouds Broken Clouds  
Wind Chill: 42°   Ceiling: 4000
Heat Index: 45°   Visibility: 6mi
Dew Point: 45°   Wind: 5mph
Humidity: 100%   Direction: 90°E
Pressure: 29.62"   Gusts: NA
Location:  53.5°N, 2.79°W
Report Text: EGGP 270550Z 09004KT 9000 SCT015 BKN040 07/07 Q1003
Loading
Personal Weather Stations






























Interactive Weather Map New forecast layout! Learn more

10-Day Weather Forecast

Advertisements
Track Severe Weather on mobile